FelLS Point — WDH5561 — position and weather

sailwx.info

Track history (hours):
 
Tides and Currents Weather Stations Pressure Air Temp Water Temp Dewpoint Dewpoint Depression Visibility Wind Speed Wind Dir Waves Ship Positions

FelLS Point

Owner: Vane Line Bunkering, Inc., Philadelphia, PA. More information available from US FCC via Universal Licensing System.

Last reported at 2018-Jun-20 23:51 UTC. Time now 2018-Jun-22 01:38 UTC.
Position N 40°39' W 074°11'.

Length 33 m; draft 4 m.

Type: Tug. MMSI: 303461000.

Date/timePositionNaut miles runAvg speedWind from/ knotsBaromVisibWave heightAir tempDewpointWater temp
2018-Jun-20 23:51N 40°39' W 074°11'3 8.4
2018-Jun-20 23:31N 40°39' W 074°07'4 8.3
2018-Jun-20 23:01N 40°39' W 074°02'2 3.2
2018-Jun-20 22:28N 40°40' W 074°00'0 0.0
2018-Jun-20 21:58N 40°40' W 074°00'0 0.0
2018-Jun-20 21:28N 40°40' W 074°00'0 0.0
2018-Jun-20 20:58N 40°40' W 074°00'0 0.0
2018-Jun-20 20:28N 40°40' W 074°00'0 0.0
2018-Jun-20 19:58N 40°40' W 074°00'0 0.0
2018-Jun-20 19:28N 40°40' W 074°00'0 0.0
2018-Jun-20 18:58N 40°40' W 074°00'0 0.0
2018-Jun-20 18:28N 40°40' W 074°00'0 0.0
2018-Jun-20 17:58N 40°40' W 074°00'0 0.0
2018-Jun-20 17:28N 40°40' W 074°00'0 0.0
2018-Jun-20 16:58N 40°40' W 074°00'0 0.0
2018-Jun-20 16:28N 40°40' W 074°00'0 0.0
2018-Jun-20 15:58N 40°40' W 074°00'0 0.0
2018-Jun-20 15:28N 40°40' W 074°00'0 0.0
2018-Jun-20 14:58N 40°40' W 074°00'0 0.1
2018-Jun-20 14:28N 40°40' W 074°00'0 0.0
2018-Jun-20 13:58N 40°40' W 074°00'0 0.0
2018-Jun-20 13:28N 40°40' W 074°00'0 0.0
2018-Jun-20 12:58N 40°40' W 074°00'0 0.0
2018-Jun-20 12:28N 40°40' W 074°00'0 0.0
2018-Jun-20 11:58N 40°40' W 074°00'0 0.0
2018-Jun-20 11:28N 40°40' W 074°00'0 0.0
2018-Jun-20 10:58N 40°40' W 074°00'0 0.0
2018-Jun-20 10:28N 40°40' W 074°00'0 0.0
2018-Jun-20 09:58N 40°40' W 074°00'1 1.9
2018-Jun-20 09:30N 40°40' W 074°01'4 8.7
2018-Jun-20 09:00N 40°39' W 074°07'4 8.3
2018-Jun-20 08:30N 40°38' W 074°12'0 0.2
2018-Jun-20 06:02N 40°38' W 074°12'0 7.0
2018-Jun-20 05:58N 40°38' W 074°12'4 8.2
2018-Jun-20 05:30N 40°39' W 074°07'4 7.9
2018-Jun-20 05:00N 40°41' W 074°02'5 9.1
2018-Jun-20 04:29N 40°46' W 074°01'  
2018-Jun-17 16:42N 40°51' W 073°57'510.6
2018-Jun-17 16:17N 40°47' W 073°60'310.2
2018-Jun-17 16:00N 40°44' W 074°01'5 9.8
2018-Jun-17 15:30N 40°40' W 074°03'5 7.2
2018-Jun-17 14:50N 40°39' W 074°09'7 6.0
2018-Jun-17 13:45N 40°33' W 074°14'0 0.1
2018-Jun-17 13:30N 40°33' W 074°14'0 0.2
2018-Jun-17 13:00N 40°33' W 074°14'0 0.0
2018-Jun-17 12:30N 40°33' W 074°14'5 0.6
2018-Jun-17 04:41N 40°38' W 074°12'1 7.4
2018-Jun-17 04:30N 40°39' W 074°11'4 8.6
2018-Jun-17 04:01N 40°39' W 074°05'4 7.6
2018-Jun-17 03:29N 40°40' W 074°00'0 0.0
2018-Jun-17 02:59N 40°40' W 074°00'1 2.2
2018-Jun-17 02:30N 40°40' W 074°01'5 9.3
2018-Jun-17 02:00N 40°39' W 074°07'  
2018-Jun-14 18:11N 40°39' W 074°11'1 7.9
2018-Jun-14 18:00N 40°39' W 074°09'3 6.0
2018-Jun-14 17:30N 40°39' W 074°05'1 1.8
2018-Jun-14 17:00N 40°40' W 074°04'1 1.4
2018-Jun-14 16:28N 40°40' W 074°05'0 0.0
2018-Jun-14 15:58N 40°40' W 074°05'0 0.0
2018-Jun-14 15:28N 40°40' W 074°05'0 0.0
2018-Jun-14 14:58N 40°40' W 074°05'0 0.0
2018-Jun-14 14:28N 40°40' W 074°05'0 0.0
2018-Jun-14 13:58N 40°40' W 074°05'0 0.0
2018-Jun-14 13:28N 40°40' W 074°05'0 0.0
2018-Jun-14 12:58N 40°40' W 074°05'0 0.0
2018-Jun-14 12:28N 40°40' W 074°05'0 0.0
2018-Jun-14 12:00N 40°40' W 074°05'0 0.3
2018-Jun-14 11:30N 40°40' W 074°05'0 0.3
2018-Jun-14 10:58N 40°40' W 074°05'0 0.0
2018-Jun-14 10:28N 40°40' W 074°05'0 0.0
2018-Jun-14 09:58N 40°40' W 074°05'0 0.0
2018-Jun-14 09:28N 40°40' W 074°05'0 0.0
2018-Jun-14 08:58N 40°40' W 074°05'0 0.0
2018-Jun-14 08:28N 40°40' W 074°05'0 0.0
2018-Jun-14 07:58N 40°40' W 074°05'0 0.0
2018-Jun-14 07:28N 40°40' W 074°05'0 0.0
2018-Jun-14 06:58N 40°40' W 074°05'0 0.0
2018-Jun-14 06:28N 40°40' W 074°05'0 0.0
2018-Jun-14 05:58N 40°40' W 074°05'0 0.0
2018-Jun-14 05:28N 40°40' W 074°05'0 0.0
2018-Jun-14 04:58N 40°40' W 074°05'0 0.0
2018-Jun-14 04:28N 40°40' W 074°05'0 0.0
2018-Jun-14 04:00N 40°40' W 074°05'0 0.0
2018-Jun-14 03:31N 40°40' W 074°05'0 0.0
2018-Jun-14 03:00N 40°40' W 074°05'0 0.0
2018-Jun-14 02:30N 40°40' W 074°05'0 0.0
2018-Jun-14 02:00N 40°40' W 074°05'0 0.0
2018-Jun-14 01:30N 40°40' W 074°05'0 0.0
2018-Jun-14 01:00N 40°40' W 074°05'1 2.0
2018-Jun-14 00:30N 40°39' W 074°05'1 1.4
2018-Jun-14 00:00N 40°40' W 074°04'1 1.2
2018-Jun-13 23:29N 40°40' W 074°04'0 0.0
2018-Jun-13 22:59N 40°40' W 074°04'0 0.0
2018-Jun-13 22:29N 40°40' W 074°04'0 0.0
2018-Jun-13 21:56N 40°40' W 074°04'0 0.0
2018-Jun-13 21:29N 40°40' W 074°04'0 0.0
2018-Jun-13 20:59N 40°40' W 074°04'0 0.0
2018-Jun-13 20:29N 40°40' W 074°04'0 0.0
2018-Jun-13 19:59N 40°40' W 074°04'0 0.0
2018-Jun-13 19:29N 40°40' W 074°04'0 0.0
2018-Jun-13 18:59N 40°40' W 074°04'0 0.0
2018-Jun-13 18:29N 40°40' W 074°04'0 0.0
2018-Jun-13 17:59N 40°40' W 074°04'0 0.0
2018-Jun-13 17:29N 40°40' W 074°04'0 0.0
2018-Jun-13 16:59N 40°40' W 074°04'0 0.0
2018-Jun-13 16:29N 40°40' W 074°04'0 0.1
2018-Jun-13 16:00N 40°40' W 074°04'3 5.6
2018-Jun-13 15:30N 40°40' W 074°01'1 1.1
2018-Jun-13 14:58N 40°40' W 074°00'0 0.0
2018-Jun-13 14:28N 40°40' W 074°00'0 0.0
2018-Jun-13 14:00N 40°40' W 074°00'0 0.0
2018-Jun-13 13:30N 40°40' W 074°00'0 0.0
2018-Jun-13 13:00N 40°40' W 074°00'0 0.0
2018-Jun-13 12:30N 40°40' W 074°00'0 0.2
2018-Jun-13 12:01N 40°40' W 074°00'1 1.4
2018-Jun-13 11:30N 40°40' W 074°01'3 5.3
2018-Jun-13 11:00N 40°40' W 074°04'0 0.2
2018-Jun-13 10:30N 40°40' W 074°04'0 0.0
2018-Jun-13 10:00N 40°40' W 074°04'0 0.0
2018-Jun-13 09:30N 40°40' W 074°04'0 0.0
2018-Jun-13 09:00N 40°40' W 074°04'0 0.0
2018-Jun-13 08:30N 40°40' W 074°04'0 0.0
2018-Jun-13 08:00N 40°40' W 074°04'0 0.0
2018-Jun-13 07:30N 40°40' W 074°04'0 0.0
2018-Jun-13 07:00N 40°40' W 074°04'0 0.0
2018-Jun-13 06:30N 40°40' W 074°04'0 0.0
2018-Jun-13 06:00N 40°40' W 074°04'0 0.0
2018-Jun-13 05:30N 40°40' W 074°04'0 0.0
2018-Jun-13 05:00N 40°40' W 074°04'0 0.0
2018-Jun-13 04:30N 40°40' W 074°04'0 0.0
2018-Jun-13 04:00N 40°40' W 074°04'0 0.1
2018-Jun-13 03:30N 40°40' W 074°04'3 5.2
2018-Jun-13 03:00N 40°41' W 074°01'4 8.9
2018-Jun-13 02:30N 40°44' W 073°57'1 0.1
2018-Jun-12 13:45N 40°44' W 073°57'1 2.4
2018-Jun-12 13:28N 40°44' W 073°57'1 3.0
2018-Jun-12 13:00N 40°43' W 073°58'4 7.8
2018-Jun-12 12:30N 40°40' W 074°02'2 3.8
2018-Jun-12 12:00N 40°40' W 074°04'0 0.0
2018-Jun-12 11:29N 40°40' W 074°04'0 0.0
2018-Jun-12 11:00N 40°40' W 074°04'0 0.0
2018-Jun-12 10:30N 40°40' W 074°04'0 0.0
2018-Jun-12 09:59N 40°40' W 074°04'0 0.0
2018-Jun-12 09:29N 40°40' W 074°04'2 3.1
2018-Jun-12 08:59N 40°39' W 074°06'8 5.8
2018-Jun-12 07:35N 40°33' W 074°14'1 7.3
2018-Jun-12 07:29N 40°33' W 074°14'0 0.1
2018-Jun-12 06:53N 40°33' W 074°15'6 0.4
2018-Jun-11 14:47N 40°39' W 074°10'3 9.9
2018-Jun-11 14:29N 40°39' W 074°06'5 1.4
2018-Jun-11 11:06N 40°40' W 074°00'0 0.1
2018-Jun-11 10:59N 40°40' W 074°00'0 0.0
2018-Jun-11 10:29N 40°40' W 074°00'0 0.0
2018-Jun-11 08:53N 40°40' W 074°00'0 0.0
2018-Jun-11 08:26N 40°40' W 074°00'0 0.0
2018-Jun-11 07:56N 40°40' W 074°00'0 0.0
2018-Jun-11 07:26N 40°40' W 074°00'0 0.2
2018-Jun-11 06:59N 40°40' W 074°00'0 0.0
2018-Jun-11 06:29N 40°40' W 074°00'2 4.6
2018-Jun-11 06:00N 40°39' W 074°03'5 9.3
2018-Jun-11 05:30N 40°39' W 074°09'  
Track history (hours):
 
Tides and Currents Weather Stations Pressure Air Temp Water Temp Dewpoint Dewpoint Depression Visibility Wind Speed Wind Dir Waves Ship Positions

FelLS Point

Owner: Vane Line Bunkering, Inc., Philadelphia, PA. More information available from US FCC via Universal Licensing System.

Last reported at 2018-Jun-20 23:51 UTC. Time now 2018-Jun-22 01:38 UTC.
Position N 40°39' W 074°11'.

Length 33 m; draft 4 m.

Type: Tug. MMSI: 303461000.

Date/timePositionNaut miles runAvg speedWind from/ knotsBaromVisibWave heightAir tempDewpointWater temp
2018-Jun-20 23:51N 40°39' W 074°11'3 8.4
2018-Jun-20 23:31N 40°39' W 074°07'4 8.3
2018-Jun-20 23:01N 40°39' W 074°02'2 3.2
2018-Jun-20 22:28N 40°40' W 074°00'0 0.0
2018-Jun-20 21:58N 40°40' W 074°00'0 0.0
2018-Jun-20 21:28N 40°40' W 074°00'0 0.0
2018-Jun-20 20:58N 40°40' W 074°00'0 0.0
2018-Jun-20 20:28N 40°40' W 074°00'0 0.0
2018-Jun-20 19:58N 40°40' W 074°00'0 0.0
2018-Jun-20 19:28N 40°40' W 074°00'0 0.0
2018-Jun-20 18:58N 40°40' W 074°00'0 0.0
2018-Jun-20 18:28N 40°40' W 074°00'0 0.0
2018-Jun-20 17:58N 40°40' W 074°00'0 0.0
2018-Jun-20 17:28N 40°40' W 074°00'0 0.0
2018-Jun-20 16:58N 40°40' W 074°00'0 0.0
2018-Jun-20 16:28N 40°40' W 074°00'0 0.0
2018-Jun-20 15:58N 40°40' W 074°00'0 0.0
2018-Jun-20 15:28N 40°40' W 074°00'0 0.0
2018-Jun-20 14:58N 40°40' W 074°00'0 0.1
2018-Jun-20 14:28N 40°40' W 074°00'0 0.0
2018-Jun-20 13:58N 40°40' W 074°00'0 0.0
2018-Jun-20 13:28N 40°40' W 074°00'0 0.0
2018-Jun-20 12:58N 40°40' W 074°00'0 0.0
2018-Jun-20 12:28N 40°40' W 074°00'0 0.0
2018-Jun-20 11:58N 40°40' W 074°00'0 0.0
2018-Jun-20 11:28N 40°40' W 074°00'0 0.0
2018-Jun-20 10:58N 40°40' W 074°00'0 0.0
2018-Jun-20 10:28N 40°40' W 074°00'0 0.0
2018-Jun-20 09:58N 40°40' W 074°00'1 1.9
2018-Jun-20 09:30N 40°40' W 074°01'4 8.7
2018-Jun-20 09:00N 40°39' W 074°07'4 8.3
2018-Jun-20 08:30N 40°38' W 074°12'0 0.2
2018-Jun-20 06:02N 40°38' W 074°12'0 7.0
2018-Jun-20 05:58N 40°38' W 074°12'4 8.2
2018-Jun-20 05:30N 40°39' W 074°07'4 7.9
2018-Jun-20 05:00N 40°41' W 074°02'5 9.1
2018-Jun-20 04:29N 40°46' W 074°01'  
2018-Jun-17 16:42N 40°51' W 073°57'510.6
2018-Jun-17 16:17N 40°47' W 073°60'310.2
2018-Jun-17 16:00N 40°44' W 074°01'5 9.8
2018-Jun-17 15:30N 40°40' W 074°03'5 7.2
2018-Jun-17 14:50N 40°39' W 074°09'7 6.0
2018-Jun-17 13:45N 40°33' W 074°14'0 0.1
2018-Jun-17 13:30N 40°33' W 074°14'0 0.2
2018-Jun-17 13:00N 40°33' W 074°14'0 0.0
2018-Jun-17 12:30N 40°33' W 074°14'5 0.6
2018-Jun-17 04:41N 40°38' W 074°12'1 7.4
2018-Jun-17 04:30N 40°39' W 074°11'4 8.6
2018-Jun-17 04:01N 40°39' W 074°05'4 7.6
2018-Jun-17 03:29N 40°40' W 074°00'0 0.0
2018-Jun-17 02:59N 40°40' W 074°00'1 2.2
2018-Jun-17 02:30N 40°40' W 074°01'5 9.3
2018-Jun-17 02:00N 40°39' W 074°07'  
2018-Jun-14 18:11N 40°39' W 074°11'1 7.9
2018-Jun-14 18:00N 40°39' W 074°09'3 6.0
2018-Jun-14 17:30N 40°39' W 074°05'1 1.8
2018-Jun-14 17:00N 40°40' W 074°04'1 1.4
2018-Jun-14 16:28N 40°40' W 074°05'0 0.0
2018-Jun-14 15:58N 40°40' W 074°05'0 0.0
2018-Jun-14 15:28N 40°40' W 074°05'0 0.0
2018-Jun-14 14:58N 40°40' W 074°05'0 0.0
2018-Jun-14 14:28N 40°40' W 074°05'0 0.0
2018-Jun-14 13:58N 40°40' W 074°05'0 0.0
2018-Jun-14 13:28N 40°40' W 074°05'0 0.0
2018-Jun-14 12:58N 40°40' W 074°05'0 0.0
2018-Jun-14 12:28N 40°40' W 074°05'0 0.0
2018-Jun-14 12:00N 40°40' W 074°05'0 0.3
2018-Jun-14 11:30N 40°40' W 074°05'0 0.3
2018-Jun-14 10:58N 40°40' W 074°05'0 0.0
2018-Jun-14 10:28N 40°40' W 074°05'0 0.0
2018-Jun-14 09:58N 40°40' W 074°05'0 0.0
2018-Jun-14 09:28N 40°40' W 074°05'0 0.0
2018-Jun-14 08:58N 40°40' W 074°05'0 0.0
2018-Jun-14 08:28N 40°40' W 074°05'0 0.0
2018-Jun-14 07:58N 40°40' W 074°05'0 0.0
2018-Jun-14 07:28N 40°40' W 074°05'0 0.0
2018-Jun-14 06:58N 40°40' W 074°05'0 0.0
2018-Jun-14 06:28N 40°40' W 074°05'0 0.0
2018-Jun-14 05:58N 40°40' W 074°05'0 0.0
2018-Jun-14 05:28N 40°40' W 074°05'0 0.0
2018-Jun-14 04:58N 40°40' W 074°05'0 0.0
2018-Jun-14 04:28N 40°40' W 074°05'0 0.0
2018-Jun-14 04:00N 40°40' W 074°05'0 0.0
2018-Jun-14 03:31N 40°40' W 074°05'0 0.0
2018-Jun-14 03:00N 40°40' W 074°05'0 0.0
2018-Jun-14 02:30N 40°40' W 074°05'0 0.0
2018-Jun-14 02:00N 40°40' W 074°05'0 0.0
2018-Jun-14 01:30N 40°40' W 074°05'0 0.0
2018-Jun-14 01:00N 40°40' W 074°05'1 2.0
2018-Jun-14 00:30N 40°39' W 074°05'1 1.4
2018-Jun-14 00:00N 40°40' W 074°04'1 1.2
2018-Jun-13 23:29N 40°40' W 074°04'0 0.0
2018-Jun-13 22:59N 40°40' W 074°04'0 0.0
2018-Jun-13 22:29N 40°40' W 074°04'0 0.0
2018-Jun-13 21:56N 40°40' W 074°04'0 0.0
2018-Jun-13 21:29N 40°40' W 074°04'0 0.0
2018-Jun-13 20:59N 40°40' W 074°04'0 0.0
2018-Jun-13 20:29N 40°40' W 074°04'0 0.0
2018-Jun-13 19:59N 40°40' W 074°04'0 0.0
2018-Jun-13 19:29N 40°40' W 074°04'0 0.0
2018-Jun-13 18:59N 40°40' W 074°04'0 0.0
2018-Jun-13 18:29N 40°40' W 074°04'0 0.0
2018-Jun-13 17:59N 40°40' W 074°04'0 0.0
2018-Jun-13 17:29N 40°40' W 074°04'0 0.0
2018-Jun-13 16:59N 40°40' W 074°04'0 0.0
2018-Jun-13 16:29N 40°40' W 074°04'0 0.1
2018-Jun-13 16:00N 40°40' W 074°04'3 5.6
2018-Jun-13 15:30N 40°40' W 074°01'1 1.1
2018-Jun-13 14:58N 40°40' W 074°00'0 0.0
2018-Jun-13 14:28N 40°40' W 074°00'0 0.0
2018-Jun-13 14:00N 40°40' W 074°00'0 0.0
2018-Jun-13 13:30N 40°40' W 074°00'0 0.0
2018-Jun-13 13:00N 40°40' W 074°00'0 0.0
2018-Jun-13 12:30N 40°40' W 074°00'0 0.2
2018-Jun-13 12:01N 40°40' W 074°00'1 1.4
2018-Jun-13 11:30N 40°40' W 074°01'3 5.3
2018-Jun-13 11:00N 40°40' W 074°04'0 0.2
2018-Jun-13 10:30N 40°40' W 074°04'0 0.0
2018-Jun-13 10:00N 40°40' W 074°04'0 0.0
2018-Jun-13 09:30N 40°40' W 074°04'0 0.0
2018-Jun-13 09:00N 40°40' W 074°04'0 0.0
2018-Jun-13 08:30N 40°40' W 074°04'0 0.0
2018-Jun-13 08:00N 40°40' W 074°04'0 0.0
2018-Jun-13 07:30N 40°40' W 074°04'0 0.0
2018-Jun-13 07:00N 40°40' W 074°04'0 0.0
2018-Jun-13 06:30N 40°40' W 074°04'0 0.0
2018-Jun-13 06:00N 40°40' W 074°04'0 0.0
2018-Jun-13 05:30N 40°40' W 074°04'0 0.0
2018-Jun-13 05:00N 40°40' W 074°04'0 0.0
2018-Jun-13 04:30N 40°40' W 074°04'0 0.0
2018-Jun-13 04:00N 40°40' W 074°04'0 0.1
2018-Jun-13 03:30N 40°40' W 074°04'3 5.2
2018-Jun-13 03:00N 40°41' W 074°01'4 8.9
2018-Jun-13 02:30N 40°44' W 073°57'1 0.1
2018-Jun-12 13:45N 40°44' W 073°57'1 2.4
2018-Jun-12 13:28N 40°44' W 073°57'1 3.0
2018-Jun-12 13:00N 40°43' W 073°58'4 7.8
2018-Jun-12 12:30N 40°40' W 074°02'2 3.8
2018-Jun-12 12:00N 40°40' W 074°04'0 0.0
2018-Jun-12 11:29N 40°40' W 074°04'0 0.0
2018-Jun-12 11:00N 40°40' W 074°04'0 0.0
2018-Jun-12 10:30N 40°40' W 074°04'0 0.0
2018-Jun-12 09:59N 40°40' W 074°04'0 0.0
2018-Jun-12 09:29N 40°40' W 074°04'2 3.1
2018-Jun-12 08:59N 40°39' W 074°06'8 5.8
2018-Jun-12 07:35N 40°33' W 074°14'1 7.3
2018-Jun-12 07:29N 40°33' W 074°14'0 0.1
2018-Jun-12 06:53N 40°33' W 074°15'6 0.4
2018-Jun-11 14:47N 40°39' W 074°10'3 9.9
2018-Jun-11 14:29N 40°39' W 074°06'5 1.4
2018-Jun-11 11:06N 40°40' W 074°00'0 0.1
2018-Jun-11 10:59N 40°40' W 074°00'0 0.0
2018-Jun-11 10:29N 40°40' W 074°00'0 0.0
2018-Jun-11 08:53N 40°40' W 074°00'0 0.0
2018-Jun-11 08:26N 40°40' W 074°00'0 0.0
2018-Jun-11 07:56N 40°40' W 074°00'0 0.0
2018-Jun-11 07:26N 40°40' W 074°00'0 0.2
2018-Jun-11 06:59N 40°40' W 074°00'0 0.0
2018-Jun-11 06:29N 40°40' W 074°00'2 4.6
2018-Jun-11 06:00N 40°39' W 074°03'5 9.3
2018-Jun-11 05:30N 40°39' W 074°09'  

Dump ship's entire track history